Terminal Aerodrome Forecast
Issued by NWS

Home | Current Version | Previous Version | Text Only | Print | Product List | Glossary On
Versions: 1 2 3 4 5 6 7 8 9 10 11 12 13 14 15 16 17 18 19
000
FTUS43 KEAX 241100
TAFSTJ
TAF
KSTJ 241120Z 2412/2512 14007KT 5SM -DZ BKN009 OVC015
     FM241400 17011KT P6SM VCSH BKN022
     FM250000 18009KT 5SM -RA BR BKN014
      TEMPO 2500/2504 4SM RA BR OVC009=

USA.gov is the U.S. government's official web portal to all federal, state and local government web resources and services.